createdAt,value
2023-02-22T00:00:02.827Z,89.50
2023-02-22T00:01:02.661Z,89.50
2023-02-22T00:02:02.081Z,89.60
2023-02-22T00:03:01.727Z,89.60
2023-02-22T00:04:02.132Z,89.60
2023-02-22T00:05:01.818Z,89.60
2023-02-22T00:06:01.798Z,89.60
2023-02-22T00:07:02.009Z,80.40
2023-02-22T00:08:01.824Z,80.40
2023-02-22T00:09:01.998Z,80.40
2023-02-22T00:10:01.902Z,80.40
2023-02-22T00:11:01.989Z,80.40
2023-02-22T00:12:02.101Z,84.80
2023-02-22T00:13:02.148Z,84.80
2023-02-22T00:14:01.960Z,84.80
2023-02-22T00:15:02.254Z,84.80
2023-02-22T00:16:02.414Z,84.80
2023-02-22T00:17:02.448Z,69.60
2023-02-22T00:18:02.967Z,69.60
2023-02-22T00:19:02.330Z,69.60
2023-02-22T00:20:02.685Z,69.60
2023-02-22T00:21:02.435Z,69.60
2023-02-22T00:22:02.879Z,70.30
2023-02-22T00:23:02.655Z,70.30
2023-02-22T00:24:02.934Z,70.30
2023-02-22T00:25:02.854Z,70.30
2023-02-22T00:26:02.841Z,70.30
2023-02-22T00:27:01.773Z,65.30
2023-02-22T00:28:02.378Z,65.30
2023-02-22T00:29:01.902Z,65.30
2023-02-22T00:30:01.907Z,65.30
2023-02-22T00:31:01.769Z,65.30
2023-02-22T00:32:02.651Z,65.10
2023-02-22T00:33:02.124Z,65.10
2023-02-22T00:34:02.505Z,65.10
2023-02-22T00:35:02.532Z,65.10
2023-02-22T00:36:02.475Z,65.10
2023-02-22T00:37:02.869Z,60.30
2023-02-22T00:38:03.019Z,60.30
2023-02-22T00:39:02.725Z,60.30
2023-02-22T00:40:02.368Z,60.30
2023-02-22T00:41:02.663Z,60.30
2023-02-22T00:42:02.180Z,64.90
2023-02-22T00:43:01.562Z,64.90
2023-02-22T00:44:02.049Z,64.90
2023-02-22T00:45:01.906Z,64.90
2023-02-22T00:46:01.785Z,64.90
2023-02-22T00:47:01.830Z,55.20
2023-02-22T00:48:01.620Z,55.20
2023-02-22T00:49:01.851Z,55.20
2023-02-22T00:50:01.917Z,55.20
2023-02-22T00:51:01.706Z,55.20
2023-02-22T00:52:02.507Z,57.90
2023-02-22T00:53:02.567Z,57.90
2023-02-22T00:54:02.564Z,57.90
2023-02-22T00:55:02.776Z,57.90
2023-02-22T00:56:02.628Z,57.90
2023-02-22T00:57:01.462Z,53.40
2023-02-22T00:58:01.819Z,53.40
2023-02-22T00:59:01.713Z,53.40
2023-02-22T01:00:01.725Z,53.40
2023-02-22T01:01:01.793Z,53.40
2023-02-22T01:02:01.800Z,51.30
2023-02-22T01:03:01.727Z,51.30
2023-02-22T01:04:01.712Z,51.30
2023-02-22T01:05:02.018Z,51.30
2023-02-22T01:06:01.717Z,51.30
2023-02-22T01:07:02.646Z,55.00
2023-02-22T01:08:02.710Z,55.00
2023-02-22T01:09:02.157Z,55.00
2023-02-22T01:10:02.449Z,55.00
2023-02-22T01:11:02.284Z,55.00
2023-02-22T01:12:01.605Z,51.70
2023-02-22T01:13:02.162Z,51.70
2023-02-22T01:14:01.984Z,51.70
2023-02-22T01:15:01.975Z,51.70
2023-02-22T01:16:02.077Z,51.70
2023-02-22T01:17:01.812Z,43.10
2023-02-22T01:18:02.296Z,43.10
2023-02-22T01:19:01.785Z,43.10
2023-02-22T01:20:02.105Z,43.10
2023-02-22T01:21:01.827Z,43.10
2023-02-22T01:22:02.668Z,42.90
2023-02-22T01:23:02.968Z,42.90
2023-02-22T01:24:02.488Z,42.90
2023-02-22T01:25:02.737Z,42.90
2023-02-22T01:26:02.811Z,42.90
2023-02-22T01:27:02.353Z,48.00
2023-02-22T01:28:02.501Z,48.00
2023-02-22T01:29:02.702Z,48.00
2023-02-22T01:30:02.360Z,48.00
2023-02-22T01:31:02.463Z,48.00
2023-02-22T01:32:02.540Z,42.20
2023-02-22T01:33:02.315Z,42.20
2023-02-22T01:34:02.004Z,42.20
2023-02-22T01:35:01.917Z,42.20
2023-02-22T01:36:02.056Z,42.20
2023-02-22T01:37:01.444Z,46.90
2023-02-22T01:38:01.714Z,46.90
2023-02-22T01:39:01.394Z,46.90
2023-02-22T01:40:01.846Z,46.90
2023-02-22T01:41:01.625Z,46.90
2023-02-22T01:42:02.061Z,45.40
2023-02-22T01:43:02.066Z,45.40
2023-02-22T01:44:02.209Z,45.40
2023-02-22T01:45:02.038Z,45.40
2023-02-22T01:46:01.986Z,45.40
2023-02-22T01:47:01.816Z,44.20
2023-02-22T01:48:01.963Z,44.20
2023-02-22T01:49:01.962Z,44.20
2023-02-22T01:50:01.487Z,44.20
2023-02-22T01:51:01.478Z,44.20
2023-02-22T01:52:02.326Z,38.20
2023-02-22T01:53:02.236Z,38.20
2023-02-22T01:54:02.176Z,38.20
2023-02-22T01:55:01.750Z,38.20
2023-02-22T01:56:02.335Z,38.20
2023-02-22T01:57:01.541Z,38.50
2023-02-22T01:58:01.417Z,38.50
2023-02-22T01:59:01.283Z,38.50
2023-02-22T02:00:01.864Z,38.50
2023-02-22T02:01:01.574Z,38.50
2023-02-22T02:02:02.053Z,38.40
2023-02-22T02:03:01.899Z,38.40
2023-02-22T02:04:02.395Z,38.40
2023-02-22T02:05:02.029Z,38.40
2023-02-22T02:06:01.956Z,38.40
2023-02-22T02:07:02.339Z,34.50
2023-02-22T02:08:02.180Z,34.50
2023-02-22T02:09:02.682Z,34.50
2023-02-22T02:10:02.291Z,34.50
2023-02-22T02:11:02.128Z,34.50
2023-02-22T02:12:02.290Z,37.30
2023-02-22T02:13:02.673Z,37.30
2023-02-22T02:14:02.369Z,37.30
2023-02-22T02:15:02.837Z,37.30
2023-02-22T02:16:02.447Z,37.30
2023-02-22T02:17:02.172Z,34.20
2023-02-22T02:18:01.986Z,34.20
2023-02-22T02:19:02.220Z,34.20
2023-02-22T02:20:01.973Z,34.20
2023-02-22T02:21:01.706Z,34.20
2023-02-22T02:22:02.183Z,32.80
2023-02-22T02:23:01.946Z,32.80
2023-02-22T02:24:01.971Z,32.80
2023-02-22T02:25:02.417Z,32.80
2023-02-22T02:26:02.459Z,32.80
2023-02-22T02:27:02.543Z,30.00
2023-02-22T02:28:02.337Z,30.00
2023-02-22T02:29:02.758Z,30.00
2023-02-22T02:30:02.536Z,30.00
2023-02-22T02:31:02.970Z,30.00
2023-02-22T02:32:02.538Z,28.80
2023-02-22T02:33:01.903Z,28.80
2023-02-22T02:34:02.474Z,28.80
2023-02-22T02:35:02.443Z,28.80
2023-02-22T02:36:01.986Z,28.80
2023-02-22T02:37:02.452Z,29.20
2023-02-22T02:38:02.028Z,29.20
2023-02-22T02:39:02.456Z,29.20
2023-02-22T02:40:02.280Z,29.20
2023-02-22T02:41:02.651Z,29.20
2023-02-22T02:42:02.456Z,29.20
2023-02-22T02:43:03.012Z,29.20
2023-02-22T02:44:02.565Z,29.20
2023-02-22T02:45:02.424Z,29.20
2023-02-22T02:46:02.826Z,29.20
2023-02-22T02:47:02.389Z,24.90
2023-02-22T02:48:02.116Z,24.90
2023-02-22T02:49:02.000Z,24.90
2023-02-22T02:50:02.479Z,24.90
2023-02-22T02:51:02.000Z,24.90
2023-02-22T02:52:02.463Z,25.90
2023-02-22T02:53:02.219Z,25.90
2023-02-22T02:54:01.981Z,25.90
2023-02-22T02:55:02.430Z,25.90
2023-02-22T02:56:02.197Z,25.90
2023-02-22T02:57:02.632Z,25.70
2023-02-22T02:58:02.328Z,25.70
2023-02-22T02:59:02.757Z,25.70
2023-02-22T03:00:02.252Z,25.70
2023-02-22T03:01:02.713Z,25.70
2023-02-22T03:02:03.026Z,27.10
2023-02-22T03:03:02.985Z,27.10
2023-02-22T03:04:02.802Z,27.10
2023-02-22T03:05:02.634Z,27.10
2023-02-22T03:06:02.843Z,27.10
2023-02-22T03:07:03.435Z,26.60
2023-02-22T03:08:03.001Z,26.60
2023-02-22T03:09:03.482Z,26.60
2023-02-22T03:10:03.042Z,26.60
2023-02-22T03:11:03.039Z,26.60
2023-02-22T03:12:02.589Z,22.40
2023-02-22T03:13:02.336Z,22.40
2023-02-22T03:14:02.694Z,22.40
2023-02-22T03:15:02.325Z,22.40
2023-02-22T03:16:02.105Z,22.40
2023-02-22T03:17:03.012Z,23.90
2023-02-22T03:18:02.983Z,23.90
2023-02-22T03:19:02.748Z,23.90
2023-02-22T03:20:03.191Z,23.90
2023-02-22T03:21:03.031Z,23.90
2023-02-22T03:22:03.407Z,21.60
2023-02-22T03:23:02.979Z,21.60
2023-02-22T03:24:03.429Z,21.60
2023-02-22T03:25:03.252Z,21.60
2023-02-22T03:26:03.328Z,21.60
2023-02-22T03:27:02.862Z,23.70
2023-02-22T03:28:02.317Z,23.70
2023-02-22T03:29:02.695Z,23.70
2023-02-22T03:30:02.449Z,23.70
2023-02-22T03:31:02.932Z,23.70
2023-02-22T03:32:02.493Z,25.90
2023-02-22T03:33:03.085Z,25.90
2023-02-22T03:34:02.622Z,25.90
2023-02-22T03:35:03.008Z,25.90
2023-02-22T03:36:02.942Z,25.90
2023-02-22T03:37:03.398Z,27.90
2023-02-22T03:38:03.056Z,27.90
2023-02-22T03:39:02.830Z,27.90
2023-02-22T03:40:03.250Z,27.90
2023-02-22T03:41:03.340Z,27.90
2023-02-22T03:42:02.521Z,23.10
2023-02-22T03:43:02.102Z,23.10
2023-02-22T03:44:01.984Z,23.10
2023-02-22T03:45:02.104Z,23.10
2023-02-22T03:46:02.181Z,23.10
2023-02-22T03:47:02.001Z,23.80
2023-02-22T03:48:02.262Z,23.80
2023-02-22T03:49:02.034Z,23.80
2023-02-22T03:50:02.198Z,23.80
2023-02-22T03:51:02.642Z,23.80
2023-02-22T03:52:03.198Z,21.00
2023-02-22T03:53:02.703Z,21.00
2023-02-22T03:54:03.092Z,21.00
2023-02-22T03:55:02.773Z,21.00
2023-02-22T03:56:03.101Z,21.00
2023-02-22T03:57:03.269Z,21.30
2023-02-22T03:58:03.058Z,21.30
2023-02-22T03:59:02.873Z,21.30
2023-02-22T04:00:02.637Z,21.30
2023-02-22T04:01:03.138Z,21.30
2023-02-22T04:02:03.003Z,21.70
2023-02-22T04:03:03.432Z,21.70
2023-02-22T04:04:03.200Z,21.70
2023-02-22T04:05:03.594Z,21.70
2023-02-22T04:06:03.031Z,21.70
2023-02-22T04:07:02.509Z,22.40
2023-02-22T04:08:02.523Z,22.40
2023-02-22T04:09:02.972Z,22.40
2023-02-22T04:10:02.682Z,22.40
2023-02-22T04:11:02.669Z,22.40
2023-02-22T04:12:03.037Z,22.60
2023-02-22T04:13:03.286Z,22.60
2023-02-22T04:14:03.110Z,22.60
2023-02-22T04:15:03.612Z,22.60
2023-02-22T04:16:03.135Z,22.60
2023-02-22T04:17:02.514Z,18.90
2023-02-22T04:18:03.018Z,18.90
2023-02-22T04:19:02.464Z,18.90
2023-02-22T04:20:02.885Z,18.90
2023-02-22T04:21:02.603Z,18.90
2023-02-22T04:22:03.084Z,18.70
2023-02-22T04:23:03.499Z,18.70
2023-02-22T04:24:03.366Z,18.70
2023-02-22T04:25:03.193Z,18.70
2023-02-22T04:26:03.682Z,18.70
2023-02-22T04:27:03.195Z,21.60
2023-02-22T04:28:03.622Z,21.60
2023-02-22T04:29:03.373Z,21.60
2023-02-22T04:30:03.103Z,21.60
2023-02-22T04:31:03.642Z,21.60
2023-02-22T04:32:03.272Z,18.20
2023-02-22T04:33:03.126Z,18.20
2023-02-22T04:34:02.867Z,18.20
2023-02-22T04:35:03.251Z,18.20
2023-02-22T04:36:02.733Z,18.20
2023-02-22T04:37:03.149Z,18.60
2023-02-22T04:38:03.279Z,18.60
2023-02-22T04:39:03.030Z,18.60
2023-02-22T04:40:03.434Z,18.60
2023-02-22T04:41:03.025Z,18.60
2023-02-22T04:42:02.678Z,19.10
2023-02-22T04:43:03.070Z,19.10
2023-02-22T04:44:02.612Z,19.10
2023-02-22T04:45:02.488Z,19.10
2023-02-22T04:46:02.903Z,19.10
2023-02-22T04:47:03.393Z,18.90
2023-02-22T04:48:03.139Z,18.90
2023-02-22T04:49:03.510Z,18.90
2023-02-22T04:50:02.985Z,18.90
2023-02-22T04:51:03.095Z,18.90
2023-02-22T04:52:02.551Z,19.00
2023-02-22T04:53:03.045Z,19.00
2023-02-22T04:54:02.957Z,19.00
2023-02-22T04:55:02.838Z,19.00
2023-02-22T04:56:02.553Z,19.00
2023-02-22T04:57:03.306Z,18.70
2023-02-22T04:58:03.039Z,18.70
2023-02-22T04:59:02.839Z,18.70
2023-02-22T05:00:03.209Z,18.70
2023-02-22T05:01:03.172Z,18.70
2023-02-22T05:02:02.997Z,18.50
2023-02-22T05:03:02.692Z,18.50
2023-02-22T05:04:03.235Z,18.50
2023-02-22T05:05:03.205Z,18.50
2023-02-22T05:06:02.944Z,18.50
2023-02-22T05:07:02.422Z,19.80
2023-02-22T05:08:02.279Z,19.80
2023-02-22T05:09:02.618Z,19.80
2023-02-22T05:10:02.670Z,19.80
2023-02-22T05:11:02.143Z,19.80
2023-02-22T05:12:02.721Z,22.20
2023-02-22T05:13:04.117Z,22.20
2023-02-22T05:14:02.293Z,22.20
2023-02-22T05:15:02.708Z,22.20
2023-02-22T05:16:02.568Z,22.20
2023-02-22T05:17:02.974Z,21.10
2023-02-22T05:18:02.774Z,21.10
2023-02-22T05:19:02.573Z,21.10
2023-02-22T05:20:02.769Z,21.10
2023-02-22T05:21:02.557Z,21.10
2023-02-22T05:22:02.933Z,23.90
2023-02-22T05:23:02.737Z,23.90
2023-02-22T05:24:03.273Z,23.90
2023-02-22T05:25:02.785Z,23.90
2023-02-22T05:26:03.222Z,23.90
2023-02-22T05:27:02.549Z,22.70
2023-02-22T05:28:02.235Z,22.70
2023-02-22T05:29:02.672Z,22.70
2023-02-22T05:30:02.160Z,22.70
2023-02-22T05:31:02.696Z,22.70
2023-02-22T05:32:03.212Z,23.40
2023-02-22T05:33:03.049Z,23.40
2023-02-22T05:34:02.822Z,23.40
2023-02-22T05:35:02.931Z,23.40
2023-02-22T05:36:02.738Z,23.40
2023-02-22T05:37:02.195Z,23.50
2023-02-22T05:38:01.938Z,23.50
2023-02-22T05:39:02.365Z,23.50
2023-02-22T05:40:01.912Z,23.50
2023-02-22T05:41:01.882Z,23.50
2023-02-22T05:42:02.354Z,25.00
2023-02-22T05:43:02.065Z,25.00
2023-02-22T05:44:01.894Z,25.00
2023-02-22T05:45:02.316Z,25.00
2023-02-22T05:46:02.310Z,25.00
2023-02-22T05:47:02.711Z,23.40
2023-02-22T05:48:03.052Z,23.40
2023-02-22T05:49:02.548Z,23.40
2023-02-22T05:50:02.428Z,23.40
2023-02-22T05:51:02.901Z,23.40
2023-02-22T05:52:03.072Z,27.20
2023-02-22T05:53:02.741Z,27.20
2023-02-22T05:54:03.129Z,27.20
2023-02-22T05:55:02.665Z,27.20
2023-02-22T05:56:03.095Z,27.20
2023-02-22T05:57:03.102Z,25.60
2023-02-22T05:58:03.122Z,25.60
2023-02-22T05:59:02.950Z,25.60
2023-02-22T06:00:02.989Z,25.60
2023-02-22T06:01:03.570Z,25.60
2023-02-22T06:02:03.188Z,26.40
2023-02-22T06:03:03.044Z,26.40
2023-02-22T06:04:02.889Z,26.40
2023-02-22T06:05:02.845Z,26.40
2023-02-22T06:06:03.357Z,26.40
2023-02-22T06:07:03.601Z,29.50
2023-02-22T06:08:03.349Z,29.50
2023-02-22T06:09:03.439Z,29.50
2023-02-22T06:10:03.422Z,29.50
2023-02-22T06:11:03.731Z,29.50
2023-02-22T06:12:03.087Z,26.80
2023-02-22T06:13:03.057Z,26.80
2023-02-22T06:14:03.047Z,26.80
2023-02-22T06:15:02.925Z,26.80
2023-02-22T06:16:03.033Z,26.80
2023-02-22T06:17:03.544Z,31.50
2023-02-22T06:18:03.207Z,31.50
2023-02-22T06:19:03.624Z,31.50
2023-02-22T06:20:03.603Z,31.50
2023-02-22T06:21:03.533Z,31.50
2023-02-22T06:22:02.948Z,31.10
2023-02-22T06:23:02.681Z,31.10
2023-02-22T06:24:02.487Z,31.10
2023-02-22T06:25:02.347Z,31.10
2023-02-22T06:26:02.383Z,31.10
2023-02-22T06:27:03.580Z,26.50
2023-02-22T06:28:03.197Z,26.50
2023-02-22T06:29:03.061Z,26.50
2023-02-22T06:30:03.208Z,26.50
2023-02-22T06:31:03.193Z,26.50
2023-02-22T06:32:02.591Z,25.90
2023-02-22T06:33:02.582Z,25.90
2023-02-22T06:34:03.156Z,25.90
2023-02-22T06:35:02.665Z,25.90
2023-02-22T06:36:02.585Z,25.90
2023-02-22T06:37:02.177Z,26.50
2023-02-22T06:38:02.625Z,26.50
2023-02-22T06:39:02.468Z,26.50
2023-02-22T06:40:05.510Z,26.50
2023-02-22T06:41:02.803Z,26.20
2023-02-22T06:42:02.431Z,26.20
2023-02-22T06:43:02.341Z,26.20
2023-02-22T06:44:02.898Z,26.20
2023-02-22T06:45:02.722Z,26.20
2023-02-22T06:46:02.711Z,26.70
2023-02-22T06:47:02.843Z,26.70
2023-02-22T06:48:03.486Z,26.70
2023-02-22T06:49:03.159Z,26.70
2023-02-22T06:50:03.053Z,26.70
2023-02-22T06:51:02.879Z,27.00
2023-02-22T06:52:03.008Z,27.00
2023-02-22T06:53:03.270Z,27.00
2023-02-22T06:54:03.008Z,27.00
2023-02-22T06:55:03.461Z,27.00
2023-02-22T06:56:03.302Z,28.40
2023-02-22T06:57:02.189Z,28.40
2023-02-22T06:58:02.501Z,28.40
2023-02-22T06:59:02.920Z,28.40
2023-02-22T07:00:02.736Z,28.40
2023-02-22T07:01:02.387Z,29.70
2023-02-22T07:02:02.637Z,29.70
2023-02-22T07:03:02.698Z,29.70
2023-02-22T07:04:02.901Z,29.70
2023-02-22T07:05:02.848Z,29.70
2023-02-22T07:06:02.476Z,31.90
2023-02-22T07:07:02.769Z,31.90
2023-02-22T07:08:03.216Z,31.90
2023-02-22T07:09:03.351Z,31.90
2023-02-22T07:10:03.199Z,31.90
2023-02-22T07:11:03.213Z,29.70
2023-02-22T07:12:02.281Z,29.70
2023-02-22T07:13:02.189Z,29.70
2023-02-22T07:14:02.209Z,29.70
2023-02-22T07:15:02.659Z,29.70
2023-02-22T07:16:02.317Z,33.70
2023-02-22T07:17:03.070Z,33.70
2023-02-22T07:18:03.091Z,33.70
2023-02-22T07:19:03.012Z,33.70
2023-02-22T07:20:02.908Z,33.70
2023-02-22T07:21:02.727Z,37.40
2023-02-22T07:22:02.341Z,37.40
2023-02-22T07:23:02.330Z,37.40
2023-02-22T07:24:05.164Z,37.40
2023-02-22T07:25:02.472Z,37.40
2023-02-22T07:26:02.131Z,35.50
2023-02-22T07:27:02.794Z,35.50
2023-02-22T07:28:03.114Z,35.50
2023-02-22T07:29:02.800Z,35.50
2023-02-22T07:30:03.026Z,35.50
2023-02-22T07:31:02.997Z,36.70
2023-02-22T07:32:02.214Z,36.70
2023-02-22T07:33:02.517Z,36.70
2023-02-22T07:34:02.285Z,36.70
2023-02-22T07:35:02.219Z,36.70
2023-02-22T07:36:02.301Z,35.20
2023-02-22T07:37:02.383Z,35.20
2023-02-22T07:38:02.569Z,35.20
2023-02-22T07:39:02.115Z,35.20
2023-02-22T07:40:02.608Z,35.20
2023-02-22T07:41:02.279Z,36.70
2023-02-22T07:42:02.351Z,36.70
2023-02-22T07:43:02.494Z,36.70
2023-02-22T07:44:02.697Z,36.70
2023-02-22T07:45:02.528Z,36.70
2023-02-22T07:46:02.412Z,35.70
2023-02-22T07:47:02.384Z,35.70
2023-02-22T07:48:02.401Z,35.70
2023-02-22T07:49:02.572Z,35.70
2023-02-22T07:50:02.416Z,35.70
2023-02-22T07:51:02.228Z,35.30
2023-02-22T07:52:02.720Z,35.30
2023-02-22T07:53:03.106Z,35.30
2023-02-22T07:54:02.935Z,35.30
2023-02-22T07:55:02.727Z,35.30
2023-02-22T07:56:03.052Z,35.50
2023-02-22T07:57:02.989Z,35.50
2023-02-22T07:58:03.132Z,35.50
2023-02-22T07:59:02.740Z,35.50
2023-02-22T08:00:03.205Z,35.50
2023-02-22T08:01:02.800Z,35.80
2023-02-22T08:02:02.413Z,35.80
2023-02-22T08:03:02.557Z,35.80
2023-02-22T08:04:02.634Z,35.80
2023-02-22T08:05:02.563Z,35.80
2023-02-22T08:06:02.749Z,33.00
2023-02-22T08:07:03.063Z,33.00
2023-02-22T08:08:02.882Z,33.00
2023-02-22T08:09:02.892Z,33.00
2023-02-22T08:10:03.419Z,33.00
2023-02-22T08:11:03.017Z,36.80
2023-02-22T08:12:02.758Z,36.80
2023-02-22T08:13:02.744Z,36.80
2023-02-22T08:14:02.741Z,36.80
2023-02-22T08:15:02.622Z,36.80
2023-02-22T08:16:03.020Z,34.20
2023-02-22T08:17:02.133Z,34.20
2023-02-22T08:18:02.261Z,34.20
2023-02-22T08:19:02.403Z,34.20
2023-02-22T08:20:02.185Z,34.20
2023-02-22T08:21:02.629Z,36.10
2023-02-22T08:22:03.019Z,36.10
2023-02-22T08:23:03.160Z,36.10
2023-02-22T08:24:02.710Z,36.10
2023-02-22T08:25:03.201Z,36.10
2023-02-22T08:26:03.174Z,35.50
2023-02-22T08:27:02.763Z,35.50
2023-02-22T08:28:03.093Z,35.50
2023-02-22T08:29:03.063Z,35.50
2023-02-22T08:30:03.001Z,35.50
2023-02-22T08:31:02.990Z,34.10
2023-02-22T08:32:02.306Z,34.10
2023-02-22T08:33:02.777Z,34.10
2023-02-22T08:34:02.339Z,34.10
2023-02-22T08:35:02.716Z,34.10
2023-02-22T08:36:02.286Z,36.00
2023-02-22T08:37:02.947Z,36.00
2023-02-22T08:38:02.602Z,36.00
2023-02-22T08:39:02.944Z,36.00
2023-02-22T08:40:02.799Z,36.00
2023-02-22T08:41:02.619Z,36.90
2023-02-22T08:42:03.131Z,36.90
2023-02-22T08:43:03.256Z,36.90
2023-02-22T08:44:03.230Z,36.90
2023-02-22T08:45:02.648Z,36.90
2023-02-22T08:46:03.075Z,36.20
2023-02-22T08:47:02.229Z,36.20
2023-02-22T08:48:02.253Z,36.20
2023-02-22T08:49:02.342Z,36.20
2023-02-22T08:50:02.168Z,36.20
2023-02-22T08:51:01.762Z,35.70
2023-02-22T08:52:02.760Z,35.70
2023-02-22T08:53:02.508Z,35.70
2023-02-22T08:54:02.879Z,35.70
2023-02-22T08:55:02.759Z,35.70
2023-02-22T08:56:02.691Z,36.20
2023-02-22T08:57:02.558Z,36.20
2023-02-22T08:58:02.536Z,36.20
2023-02-22T08:59:02.982Z,36.20
2023-02-22T09:00:02.809Z,36.20
2023-02-22T09:01:03.119Z,36.30
2023-02-22T09:02:02.441Z,36.30
2023-02-22T09:03:02.088Z,36.30
2023-02-22T09:04:02.331Z,36.30
2023-02-22T09:05:01.799Z,36.30
2023-02-22T09:06:01.998Z,36.50
2023-02-22T09:07:02.564Z,36.50
2023-02-22T09:08:02.230Z,36.50
2023-02-22T09:09:02.454Z,36.50
2023-02-22T09:10:02.436Z,36.50
2023-02-22T09:11:02.347Z,42.70
2023-02-22T09:12:02.946Z,42.70
2023-02-22T09:13:03.137Z,42.70
2023-02-22T09:14:02.372Z,42.70
2023-02-22T09:15:02.984Z,42.70
2023-02-22T09:16:02.851Z,35.90
2023-02-22T09:17:04.621Z,35.90
2023-02-22T09:18:02.002Z,35.90
2023-02-22T09:19:02.244Z,35.90
2023-02-22T09:20:01.883Z,35.90
2023-02-22T09:21:01.853Z,36.00
2023-02-22T09:22:02.335Z,36.00
2023-02-22T09:23:02.467Z,36.00
2023-02-22T09:24:02.359Z,36.00
2023-02-22T09:25:11.291Z,36.00
2023-02-22T09:26:02.737Z,38.90
2023-02-22T09:27:02.758Z,38.90
2023-02-22T09:28:02.471Z,38.90
2023-02-22T09:29:02.238Z,38.90
2023-02-22T09:30:02.466Z,38.90
2023-02-22T09:31:02.766Z,40.00
2023-02-22T09:32:02.845Z,40.00
2023-02-22T09:33:03.391Z,40.00
2023-02-22T09:34:04.293Z,40.00
2023-02-22T09:35:02.967Z,40.00
2023-02-22T09:36:02.897Z,39.80
2023-02-22T09:37:01.843Z,39.80
2023-02-22T09:38:01.932Z,39.80
2023-02-22T09:39:01.921Z,39.80
2023-02-22T09:40:02.179Z,39.80
2023-02-22T09:41:02.296Z,37.90
2023-02-22T09:42:02.892Z,37.90
2023-02-22T09:43:03.108Z,37.90
2023-02-22T09:44:02.523Z,37.90
2023-02-22T09:45:02.427Z,37.90
2023-02-22T09:46:02.840Z,39.20
2023-02-22T09:47:02.162Z,39.20
2023-02-22T09:48:11.701Z,39.20
2023-02-22T09:49:02.661Z,39.20
2023-02-22T09:50:02.634Z,39.20
2023-02-22T09:51:02.102Z,38.30
2023-02-22T09:52:01.804Z,38.30
2023-02-22T09:53:02.321Z,38.30
2023-02-22T09:54:02.024Z,38.30
2023-02-22T09:55:01.949Z,38.30
2023-02-22T09:56:02.266Z,35.00
2023-02-22T09:57:01.961Z,35.00
2023-02-22T09:58:02.061Z,35.00
2023-02-22T09:59:02.269Z,35.00
2023-02-22T10:00:01.810Z,35.00
2023-02-22T10:01:02.067Z,33.80
2023-02-22T10:02:02.465Z,33.80
2023-02-22T10:03:02.198Z,33.80
2023-02-22T10:04:02.443Z,33.80
2023-02-22T10:05:02.643Z,33.80
2023-02-22T10:06:02.676Z,34.10
2023-02-22T10:07:02.313Z,34.10
2023-02-22T10:08:02.307Z,34.10
2023-02-22T10:09:02.082Z,34.10
2023-02-22T10:10:02.673Z,34.10
2023-02-22T10:11:02.342Z,36.50
2023-02-22T10:12:02.345Z,36.50
2023-02-22T10:13:02.156Z,36.50
2023-02-22T10:14:02.161Z,36.50
2023-02-22T10:15:02.451Z,36.50
2023-02-22T10:16:02.135Z,34.60
2023-02-22T10:17:02.387Z,34.60
2023-02-22T10:18:02.529Z,34.60
2023-02-22T10:19:02.617Z,34.60
2023-02-22T10:20:02.531Z,34.60
2023-02-22T10:21:02.224Z,36.10
2023-02-22T10:22:01.882Z,36.10
2023-02-22T10:23:02.153Z,36.10
2023-02-22T10:24:02.235Z,36.10
2023-02-22T10:25:02.168Z,36.10
2023-02-22T10:26:02.163Z,34.10
2023-02-22T10:27:02.300Z,34.10
2023-02-22T10:28:02.255Z,34.10
2023-02-22T10:29:02.301Z,34.10
2023-02-22T10:30:07.339Z,34.10
2023-02-22T10:31:02.757Z,32.00
2023-02-22T10:32:02.615Z,32.00
2023-02-22T10:33:02.188Z,32.00
2023-02-22T10:34:02.411Z,32.00
2023-02-22T10:35:02.697Z,32.00
2023-02-22T10:36:02.291Z,33.10
2023-02-22T10:37:02.654Z,33.10
2023-02-22T10:38:03.105Z,33.10
2023-02-22T10:39:02.672Z,33.10
2023-02-22T10:40:02.513Z,33.10
2023-02-22T10:41:02.908Z,32.20
2023-02-22T10:42:01.818Z,32.20
2023-02-22T10:43:01.860Z,32.20
2023-02-22T10:44:02.199Z,32.20
2023-02-22T10:45:01.867Z,32.20
2023-02-22T10:46:01.735Z,28.80
2023-02-22T10:47:02.498Z,28.80
2023-02-22T10:48:02.620Z,28.80
2023-02-22T10:49:02.788Z,28.80
2023-02-22T10:50:02.514Z,28.80
2023-02-22T10:51:02.488Z,30.10
2023-02-22T10:52:02.734Z,30.10
2023-02-22T10:53:03.127Z,30.10
2023-02-22T10:54:02.642Z,30.10
2023-02-22T10:55:14.500Z,30.10
2023-02-22T10:56:03.064Z,33.40
2023-02-22T10:57:02.354Z,33.40
2023-02-22T10:58:01.928Z,33.40
2023-02-22T10:59:02.389Z,33.40
2023-02-22T11:00:02.026Z,33.40
2023-02-22T11:01:02.158Z,29.20
2023-02-22T11:02:02.283Z,29.20
2023-02-22T11:03:02.402Z,29.20
2023-02-22T11:04:02.447Z,29.20
2023-02-22T11:05:02.336Z,29.20
2023-02-22T11:06:02.672Z,27.30
2023-02-22T11:07:02.819Z,27.30
2023-02-22T11:08:02.744Z,27.30
2023-02-22T11:09:02.499Z,27.30
2023-02-22T11:10:02.565Z,27.30
2023-02-22T11:11:02.664Z,29.50
2023-02-22T11:12:02.968Z,29.50
2023-02-22T11:13:03.132Z,29.50
2023-02-22T11:14:02.677Z,29.50
2023-02-22T11:15:02.750Z,29.50
2023-02-22T11:16:03.311Z,25.90
2023-02-22T11:17:02.599Z,25.90
2023-02-22T11:18:02.640Z,25.90
2023-02-22T11:19:02.240Z,25.90
2023-02-22T11:20:02.250Z,25.90
2023-02-22T11:21:02.695Z,29.40
2023-02-22T11:22:03.131Z,29.40
2023-02-22T11:23:02.876Z,29.40
2023-02-22T11:24:03.259Z,29.40
2023-02-22T11:25:03.291Z,29.40
2023-02-22T11:26:02.957Z,25.70
2023-02-22T11:27:02.882Z,25.70
2023-02-22T11:28:02.667Z,25.70
2023-02-22T11:29:02.958Z,25.70
2023-02-22T11:30:05.569Z,25.70
2023-02-22T11:31:02.663Z,22.30
2023-02-22T11:32:03.019Z,22.30
2023-02-22T11:33:03.141Z,22.30
2023-02-22T11:34:03.210Z,22.30
2023-02-22T11:35:09.042Z,22.30
2023-02-22T11:36:02.748Z,22.10
2023-02-22T11:37:03.126Z,22.10
2023-02-22T11:38:03.352Z,22.10
2023-02-22T11:39:02.884Z,22.10
2023-02-22T11:40:02.714Z,22.10
2023-02-22T11:41:02.942Z,23.30
2023-02-22T11:42:02.799Z,23.30
2023-02-22T11:43:02.746Z,23.30
2023-02-22T11:44:02.849Z,23.30
2023-02-22T11:45:02.730Z,23.30
2023-02-22T11:46:02.902Z,21.90
2023-02-22T11:47:02.804Z,21.90
2023-02-22T11:48:02.540Z,21.90
2023-02-22T11:49:02.661Z,21.90
2023-02-22T11:50:02.771Z,21.90
2023-02-22T11:51:02.658Z,20.40
2023-02-22T11:52:03.104Z,20.40
2023-02-22T11:53:03.168Z,20.40
2023-02-22T11:54:02.809Z,20.40
2023-02-22T11:55:03.044Z,20.40
2023-02-22T11:56:02.994Z,20.10
2023-02-22T11:57:02.830Z,20.10
2023-02-22T11:58:02.328Z,20.10
2023-02-22T11:59:02.885Z,20.10
2023-02-22T12:00:02.876Z,20.10
2023-02-22T12:01:02.585Z,21.50
2023-02-22T12:02:03.346Z,21.50
2023-02-22T12:03:03.205Z,21.50
2023-02-22T12:04:03.378Z,21.50
2023-02-22T12:05:03.338Z,21.50
2023-02-22T12:06:03.378Z,21.60
2023-02-22T12:07:02.499Z,21.60
2023-02-22T12:08:10.709Z,21.60
2023-02-22T12:09:02.175Z,21.60
2023-02-22T12:10:01.998Z,21.60
2023-02-22T12:11:02.367Z,19.00
2023-02-22T12:12:02.585Z,19.00
2023-02-22T12:13:02.092Z,19.00
2023-02-22T12:14:02.106Z,19.00
2023-02-22T12:15:02.221Z,19.00
2023-02-22T12:16:02.259Z,23.60
2023-02-22T12:17:02.820Z,23.60
2023-02-22T12:18:02.276Z,23.60
2023-02-22T12:19:02.260Z,23.60
2023-02-22T12:20:02.266Z,23.60
2023-02-22T12:21:02.468Z,21.80
2023-02-22T12:22:03.296Z,21.80
2023-02-22T12:23:03.188Z,21.80
2023-02-22T12:24:03.379Z,21.80
2023-02-22T12:25:09.456Z,21.80
2023-02-22T12:26:02.919Z,20.50
2023-02-22T12:27:05.607Z,20.50
2023-02-22T12:28:05.871Z,20.50
2023-02-22T12:29:02.400Z,20.50
2023-02-22T12:30:02.427Z,20.50
2023-02-22T12:31:02.443Z,20.60
2023-02-22T12:32:03.352Z,20.60
2023-02-22T12:33:05.335Z,20.60
2023-02-22T12:34:03.421Z,20.60
2023-02-22T12:35:02.948Z,20.60
2023-02-22T12:36:03.102Z,21.30
2023-02-22T12:37:02.113Z,21.30
2023-02-22T12:38:02.287Z,21.30
2023-02-22T12:39:02.478Z,21.30
2023-02-22T12:40:02.152Z,21.30
2023-02-22T12:41:02.611Z,16.30
2023-02-22T12:42:02.442Z,16.30
2023-02-22T12:43:03.161Z,16.30
2023-02-22T12:44:02.883Z,16.30
2023-02-22T12:45:05.116Z,16.30
2023-02-22T12:46:03.154Z,19.80
2023-02-22T12:47:02.957Z,19.80
2023-02-22T12:48:02.028Z,19.80
2023-02-22T12:49:02.077Z,19.80
2023-02-22T12:50:02.473Z,19.80
2023-02-22T12:51:02.537Z,21.90
2023-02-22T12:52:12.407Z,21.90